Time;durP1;ratioP1;P1;durP2;ratioP2;P2;SDS_P1;SDS_P2;PMS_P1;PMS_P2;Temp;Humidity;BMP_temperature;BMP_pressure;BME280_temperature;BME280_humidity;BME280_pressure;Samples;Min_cycle;Max_cycle;Signal;HPM_P1;HPM_P2
2022/06/18 00:00:55;;;;;;;;;;;;;;;20.43;100.00;101667.06;2614253;36;20715;-58
2022/06/18 00:03:24;;;;;;;;;;;;;;;20.34;100.00;101667.31;2612865;31;20508;-58
2022/06/18 00:05:53;;;;;;;;;;;;;;;20.40;100.00;101663.88;2612721;36;21221;-58
2022/06/18 00:08:23;;;;;;;;;;;;;;;20.48;100.00;101661.09;2613099;31;20758;-58
2022/06/18 00:13:39;;;;;;;;;;;;;;;20.59;100.00;101655.16;2616712;31;20325;-58
2022/06/18 00:13:48;;;;;;;;;;;;;;;20.59;100.00;101657.91;2614215;36;19973;-60
2022/06/18 00:16:20;;;;;;;;;;;;;;;20.52;100.00;101651.47;2613734;31;20441;-59
2022/06/18 00:18:49;;;;;;;;;;;;;;;20.48;100.00;101653.72;2613489;31;20428;-59
2022/06/18 00:21:19;;;;;;;;;;;;;;;20.46;100.00;101654.94;2613813;36;20361;-58
2022/06/18 00:23:47;;;;;;;;;;;;;;;20.54;100.00;101649.41;2613677;36;20514;-58
2022/06/18 00:26:15;;;;;;;;;;;;;;;20.67;100.00;101653.44;2613485;36;19946;-60
2022/06/18 00:28:43;;;;;;;;;;;;;;;20.57;100.00;101649.03;2613235;36;19946;-59
2022/06/18 00:31:12;;;;;;;;;;;;;;;20.73;100.00;101658.16;2613171;36;19955;-58
2022/06/18 00:33:45;;;;;;;;;;;;;;;20.72;100.00;101656.47;2613344;36;19947;-58
2022/06/18 00:36:16;;;;;;;;;;;;;;;20.70;100.00;101661.28;2614159;36;19951;-60
2022/06/18 00:38:45;;;;;;;;;;;;;;;20.61;100.00;101644.03;2612917;36;19951;-62
2022/06/18 00:41:16;;;;;;;;;;;;;;;20.40;100.00;101642.84;2613578;36;19968;-59
2022/06/18 00:43:47;;;;;;;;;;;;;;;20.54;100.00;101652.16;2613834;36;19981;-58
2022/06/18 00:46:18;;;;;;;;;;;;;;;20.63;100.00;101642.84;2614216;36;20451;-58
2022/06/18 00:48:51;;;;;;;;;;;;;;;20.72;100.00;101640.06;2613151;36;19981;-58
2022/06/18 00:51:22;;;;;;;;;;;;;;;20.84;100.00;101649.53;2613733;36;19954;-63
2022/06/18 00:53:54;;;;;;;;;;;;;;;20.68;100.00;101655.16;2613630;36;19973;-58
2022/06/18 00:56:25;;;;;;;;;;;;;;;20.56;100.00;101641.84;2613645;36;19950;-58
2022/06/18 00:58:56;;;;;;;;;;;;;;;20.49;100.00;101646.34;2610838;36;19982;-61
2022/06/18 01:01:32;;;;;;;;;;;;;;;20.55;100.00;101642.88;2606657;36;20952;-58
2022/06/18 01:04:03;;;;;;;;;;;;;;;20.44;100.00;101641.44;2613565;36;19984;-59
2022/06/18 01:06:32;;;;;;;;;;;;;;;20.50;100.00;101642.59;2613862;36;19966;-60
2022/06/18 01:09:01;;;;;;;;;;;;;;;20.48;100.00;101637.31;2614125;31;20589;-58
2022/06/18 01:11:30;;;;;;;;;;;;;;;20.54;100.00;101638.47;2613730;36;19951;-58
2022/06/18 01:14:01;;;;;;;;;;;;;;;20.44;100.00;101637.88;2613276;36;19946;-57
2022/06/18 01:16:30;;;;;;;;;;;;;;;20.54;100.00;101638.47;2614035;36;19947;-57
2022/06/18 01:18:59;;;;;;;;;;;;;;;20.55;100.00;101634.69;2612476;36;19955;-59
2022/06/18 01:21:35;;;;;;;;;;;;;;;20.56;100.00;101628.19;2614104;36;19989;-58
2022/06/18 01:24:05;;;;;;;;;;;;;;;20.37;100.00;101634.16;2612755;36;19950;-55
2022/06/18 01:26:37;;;;;;;;;;;;;;;20.41;100.00;101639.06;2613749;31;20006;-58
2022/06/18 01:29:06;;;;;;;;;;;;;;;20.22;100.00;101629.47;2612742;31;20322;-59
2022/06/18 01:31:34;;;;;;;;;;;;;;;20.15;100.00;101633.94;2613198;36;20015;-58
2022/06/18 01:34:02;;;;;;;;;;;;;;;20.11;100.00;101633.47;2613043;31;20568;-59
2022/06/18 01:36:32;;;;;;;;;;;;;;;20.15;100.00;101636.69;2613987;36;20040;-59
2022/06/18 01:39:01;;;;;;;;;;;;;;;20.18;100.00;101627.28;2612573;36;19951;-62
2022/06/18 01:44:17;;;;;;;;;;;;;;;20.04;100.00;101620.72;2613364;36;19975;-59
2022/06/18 01:46:48;;;;;;;;;;;;;;;20.09;100.00;101616.38;2614506;36;20344;-60
2022/06/18 01:49:18;;;;;;;;;;;;;;;20.14;100.00;101626.81;2613251;36;19950;-60
2022/06/18 01:51:48;;;;;;;;;;;;;;;20.10;100.00;101618.09;2614384;36;20059;-58
2022/06/18 01:54:18;;;;;;;;;;;;;;;20.11;100.00;101613.47;2612993;31;19954;-60
2022/06/18 01:56:47;;;;;;;;;;;;;;;20.16;100.00;101610.22;2612555;36;19950;-58
2022/06/18 01:59:19;;;;;;;;;;;;;;;20.08;100.00;101611.97;2612735;36;19950;-56
2022/06/18 02:01:49;;;;;;;;;;;;;;;20.00;100.00;101608.44;2614080;36;20375;-63
2022/06/18 02:04:19;;;;;;;;;;;;;;;20.00;100.00;101608.44;2612047;31;19954;-62
2022/06/18 02:06:48;;;;;;;;;;;;;;;20.07;100.00;101610.25;2613086;36;19947;-58
2022/06/18 02:09:29;;;;;;;;;;;;;;;20.00;100.00;101611.19;2613064;36;20340;-57
2022/06/18 02:11:57;;;;;;;;;;;;;;;20.03;100.00;101611.66;2613719;36;19954;-58
2022/06/18 02:14:30;;;;;;;;;;;;;;;20.09;100.00;101619.13;2613409;36;20396;-58
2022/06/18 02:16:59;;;;;;;;;;;;;;;20.03;100.00;101621.75;2614638;36;20016;-57
2022/06/18 02:19:31;;;;;;;;;;;;;;;20.07;100.00;101618.47;2613451;36;19950;-60
2022/06/18 02:21:59;;;;;;;;;;;;;;;19.99;100.00;101615.75;2613900;36;19947;-59
2022/06/18 02:24:28;;;;;;;;;;;;;;;19.90;100.00;101623.16;2613155;36;20069;-59
2022/06/18 02:26:57;;;;;;;;;;;;;;;19.82;100.00;101627.81;2614229;36;19946;-58
2022/06/18 02:29:27;;;;;;;;;;;;;;;19.73;100.00;101621.53;2613246;31;19954;-57
2022/06/18 02:31:58;;;;;;;;;;;;;;;19.65;100.00;101621.56;2613614;36;19964;-57
2022/06/18 02:34:27;;;;;;;;;;;;;;;19.64;100.00;101615.25;2613753;31;19947;-58
2022/06/18 02:36:55;;;;;;;;;;;;;;;19.55;100.00;101611.72;2613615;36;20884;-61
2022/06/18 02:39:27;;;;;;;;;;;;;;;19.55;100.00;101616.31;2613851;36;20689;-58
2022/06/18 02:41:59;;;;;;;;;;;;;;;19.52;100.00;101612.06;2614351;36;19974;-57
2022/06/18 02:44:27;;;;;;;;;;;;;;;19.52;100.00;101620.25;2613296;36;19968;-58
2022/06/18 02:46:58;;;;;;;;;;;;;;;19.51;100.00;101612.25;2614433;36;20300;-59
2022/06/18 02:49:27;;;;;;;;;;;;;;;19.47;100.00;101611.72;2613004;36;19951;-58
2022/06/18 02:51:55;;;;;;;;;;;;;;;19.35;100.00;101611.25;2613170;36;19950;-57
2022/06/18 02:54:23;;;;;;;;;;;;;;;19.28;100.00;101614.88;2613112;36;20448;-63
2022/06/18 02:56:52;;;;;;;;;;;;;;;19.21;100.00;101615.59;2613461;36;19947;-58
2022/06/18 02:59:20;;;;;;;;;;;;;;;19.25;100.00;101616.91;2615575;36;19939;-58
2022/06/18 03:01:51;;;;;;;;;;;;;;;19.24;100.00;101620.69;2613852;54;19967;-58
2022/06/18 03:04:21;;;;;;;;;;;;;;;19.23;100.00;101623.59;2612385;36;19954;-60
2022/06/18 03:06:50;;;;;;;;;;;;;;;19.19;100.00;101624.97;2613928;31;19959;-59
2022/06/18 03:09:18;;;;;;;;;;;;;;;19.18;100.00;101632.28;2612332;36;19954;-60
2022/06/18 03:14:26;;;;;;;;;;;;;;;19.29;100.00;101633.81;2613568;31;19951;-58
2022/06/18 03:16:54;;;;;;;;;;;;;;;19.28;100.00;101637.56;2613964;36;19947;-57
2022/06/18 03:19:31;;;;;;;;;;;;;;;19.21;100.00;101642.88;2613095;31;19954;-58
2022/06/18 03:22:03;;;;;;;;;;;;;;;19.19;100.00;101644.91;2614479;31;19978;-57
2022/06/18 03:24:31;;;;;;;;;;;;;;;19.16;100.00;101644.41;2611067;36;20387;-59
2022/06/18 03:26:59;;;;;;;;;;;;;;;18.98;100.00;101653.66;2612625;36;20445;-58
2022/06/18 03:29:27;;;;;;;;;;;;;;;19.00;100.00;101651.59;2613637;36;19950;-57
2022/06/18 03:31:56;;;;;;;;;;;;;;;19.00;100.00;101650.75;2613891;31;20653;-58
2022/06/18 03:34:27;;;;;;;;;;;;;;;18.93;100.00;101647.00;2612011;36;20006;-62
2022/06/18 03:36:56;;;;;;;;;;;;;;;19.01;100.00;101655.19;2613315;36;19958;-57
2022/06/18 03:39:25;;;;;;;;;;;;;;;19.04;100.00;101660.31;2613390;36;20034;-58
2022/06/18 03:41:53;;;;;;;;;;;;;;;19.08;100.00;101669.84;2613983;36;19973;-58
2022/06/18 03:44:22;;;;;;;;;;;;;;;19.06;100.00;101667.25;2613148;36;20620;-58
2022/06/18 03:46:50;;;;;;;;;;;;;;;19.06;100.00;101666.41;2613534;36;19957;-54
2022/06/18 03:49:23;;;;;;;;;;;;;;;19.01;100.00;101666.09;2613890;36;19961;-63
2022/06/18 03:51:53;;;;;;;;;;;;;;;19.03;100.00;101662.16;2614257;36;20422;-59
2022/06/18 03:54:21;;;;;;;;;;;;;;;18.94;100.00;101667.81;2613291;36;19962;-58
2022/06/18 03:56:50;;;;;;;;;;;;;;;19.03;100.00;101666.78;2613296;36;20511;-64
2022/06/18 03:59:19;;;;;;;;;;;;;;;19.04;100.00;101669.31;2614152;36;20582;-63
2022/06/18 04:01:47;;;;;;;;;;;;;;;19.04;100.00;101663.03;2613524;36;19947;-59
2022/06/18 04:04:16;;;;;;;;;;;;;;;19.08;100.00;101664.38;2612234;36;19946;-61
2022/06/18 04:06:44;;;;;;;;;;;;;;;19.02;100.00;101665.94;2613778;36;20448;-61
2022/06/18 04:09:15;;;;;;;;;;;;;;;18.99;100.00;101666.28;2614026;36;20076;-58
2022/06/18 04:11:43;;;;;;;;;;;;;;;18.98;100.00;101674.63;2614373;36;19981;-57
2022/06/18 04:14:11;;;;;;;;;;;;;;;19.13;100.00;101670.16;2613141;36;20288;-60
2022/06/18 04:16:39;;;;;;;;;;;;;;;19.11;100.00;101672.22;2613662;36;19954;-61
2022/06/18 04:19:08;;;;;;;;;;;;;;;19.19;100.00;101672.19;2613587;36;20573;-59
2022/06/18 04:21:36;;;;;;;;;;;;;;;19.34;100.00;101676.94;2614187;36;19946;-58
2022/06/18 04:24:04;;;;;;;;;;;;;;;19.39;100.00;101677.25;2610620;36;19953;-65
2022/06/18 04:26:35;;;;;;;;;;;;;;;19.38;100.00;101675.59;2607874;36;20296;-57
2022/06/18 04:29:03;;;;;;;;;;;;;;;19.35;100.00;101670.47;2614041;36;19946;-57
2022/06/18 04:31:31;;;;;;;;;;;;;;;19.45;100.00;101673.84;2613961;31;20537;-61
2022/06/18 04:33:59;;;;;;;;;;;;;;;19.68;100.00;101678.56;2612739;36;19950;-58
2022/06/18 04:36:32;;;;;;;;;;;;;;;19.84;100.00;101669.47;2613136;36;19950;-55
2022/06/18 04:39:00;;;;;;;;;;;;;;;20.01;100.00;101675.69;2613248;36;19958;-58
2022/06/18 04:41:29;;;;;;;;;;;;;;;19.99;100.00;101669.56;2613197;36;19946;-59
2022/06/18 04:43:59;;;;;;;;;;;;;;;19.93;100.00;101680.22;2612019;36;19984;-57
2022/06/18 04:46:27;;;;;;;;;;;;;;;19.86;100.00;101673.75;2612447;36;19946;-58
2022/06/18 04:48:56;;;;;;;;;;;;;;;19.92;100.00;101666.69;2613141;36;19947;-59
2022/06/18 04:51:24;;;;;;;;;;;;;;;20.00;100.00;101674.03;2611769;36;19950;-58
2022/06/18 04:53:52;;;;;;;;;;;;;;;20.13;100.00;101668.81;2610743;36;19946;-57
2022/06/18 04:56:20;;;;;;;;;;;;;;;20.33;100.00;101662.88;2614193;36;20012;-62
2022/06/18 04:58:48;;;;;;;;;;;;;;;20.35;100.00;101655.38;2613783;36;19950;-58
2022/06/18 05:01:20;;;;;;;;;;;;;;;20.31;100.00;101658.44;2613656;31;19974;-58
2022/06/18 05:03:49;;;;;;;;;;;;;;;20.33;100.00;101657.41;2612780;36;19981;-59
2022/06/18 05:06:17;;;;;;;;;;;;;;;20.58;100.00;101652.63;2613848;36;19962;-58
2022/06/18 05:08:45;;;;;;;;;;;;;;;20.77;100.00;101659.50;2613818;36;19950;-61
2022/06/18 05:11:13;;;;;;;;;;;;;;;20.86;100.00;101657.56;2614851;36;19947;-59
2022/06/18 05:13:42;;;;;;;;;;;;;;;20.84;100.00;101663.22;2613123;36;19958;-59
2022/06/18 05:16:10;;;;;;;;;;;;;;;21.17;100.00;101662.88;2613811;36;20428;-59
2022/06/18 05:18:45;;;;;;;;;;;;;;;21.30;100.00;101659.50;2612597;36;20016;-59
2022/06/18 05:21:14;;;;;;;;;;;;;;;21.34;100.00;101671.78;2613341;36;19985;-59
2022/06/18 05:23:45;;;;;;;;;;;;;;;21.15;100.00;101673.19;2614298;36;19962;-59
2022/06/18 05:26:16;;;;;;;;;;;;;;;21.27;100.00;101671.69;2614022;31;19947;-59
2022/06/18 05:28:44;;;;;;;;;;;;;;;21.26;100.00;101671.88;2613203;36;19981;-59
2022/06/18 05:31:12;;;;;;;;;;;;;;;21.23;100.00;101670.38;2613087;36;19951;-59
2022/06/18 05:33:43;;;;;;;;;;;;;;;21.47;100.00;101669.25;2612735;36;19950;-59
2022/06/18 05:36:11;;;;;;;;;;;;;;;21.00;100.00;101663.06;2613923;36;19946;-59
2022/06/18 05:38:39;;;;;;;;;;;;;;;21.14;100.00;101663.25;2613181;36;19946;-62
2022/06/18 05:41:11;;;;;;;;;;;;;;;21.29;100.00;101658.66;2613782;36;19955;-57
2022/06/18 05:43:39;;;;;;;;;;;;;;;21.27;100.00;101660.72;2612779;36;19950;-62
2022/06/18 05:46:07;;;;;;;;;;;;;;;21.17;100.00;101654.66;2613370;36;19981;-58
2022/06/18 05:48:35;;;;;;;;;;;;;;;21.41;100.00;101664.53;2612905;31;19951;-57
2022/06/18 05:51:06;;;;;;;;;;;;;;;21.40;100.00;101667.44;2613896;31;19951;-63
2022/06/18 05:53:34;;;;;;;;;;;;;;;21.39;100.00;101669.31;2613276;36;20546;-59
2022/06/18 05:56:02;;;;;;;;;;;;;;;21.30;100.00;101668.59;2614339;36;20494;-58
2022/06/18 05:58:31;;;;;;;;;;;;;;;20.86;100.00;101677.53;2613662;31;20455;-62
2022/06/18 06:00:59;;;;;;;;;;;;;;;20.79;100.00;101676.59;2613968;36;20337;-57
2022/06/18 06:03:27;;;;;;;;;;;;;;;21.02;100.00;101672.97;2612631;36;19973;-61
2022/06/18 06:05:55;;;;;;;;;;;;;;;21.38;100.00;101677.72;2613810;36;19947;-61
2022/06/18 06:08:25;;;;;;;;;;;;;;;21.04;100.00;101677.22;2612732;36;19958;-57
2022/06/18 06:13:34;;;;;;;;;;;;;;;21.31;100.00;101672.16;2612721;36;19957;-57
2022/06/18 06:16:03;;;;;;;;;;;;;;;21.17;100.00;101674.72;2614124;36;19981;-58
2022/06/18 06:18:31;;;;;;;;;;;;;;;21.55;100.00;101671.06;2613261;36;20448;-57
2022/06/18 06:21:00;;;;;;;;;;;;;;;21.44;100.00;101671.53;2612171;36;20562;-58
2022/06/18 06:23:31;;;;;;;;;;;;;;;21.46;100.00;101674.91;2613353;31;19955;-58
2022/06/18 06:25:59;;;;;;;;;;;;;;;22.11;100.00;101684.22;2613824;36;19947;-60
2022/06/18 06:28:29;;;;;;;;;;;;;;;22.40;100.00;101687.97;2614610;31;20454;-58
2022/06/18 06:30:57;;;;;;;;;;;;;;;22.35;100.00;101688.56;2613584;36;20316;-57
2022/06/18 06:33:25;;;;;;;;;;;;;;;22.62;100.00;101683.34;2612712;36;19953;-57
2022/06/18 06:35:55;;;;;;;;;;;;;;;22.87;100.00;101685.69;2613910;36;19970;-58
2022/06/18 06:38:23;;;;;;;;;;;;;;;22.65;100.00;101696.66;2613519;36;19974;-64
2022/06/18 06:40:54;;;;;;;;;;;;;;;22.60;100.00;101699.16;2612922;36;19957;-58
2022/06/18 06:43:23;;;;;;;;;;;;;;;22.45;100.00;101706.59;2612650;36;19950;-64
2022/06/18 06:45:51;;;;;;;;;;;;;;;22.55;100.00;101702.47;2613937;36;20330;-60
2022/06/18 06:48:19;;;;;;;;;;;;;;;22.75;100.00;101702.69;2612582;36;20355;-60
2022/06/18 06:50:50;;;;;;;;;;;;;;;22.91;100.00;101703.47;2614087;36;19961;-62
2022/06/18 06:53:19;;;;;;;;;;;;;;;23.12;100.00;101702.59;2613353;36;20037;-59
2022/06/18 06:58:30;;;;;;;;;;;;;;;22.53;100.00;101710.06;2613206;36;20366;-58
2022/06/18 07:00:59;;;;;;;;;;;;;;;22.79;100.00;101716.00;2614238;36;20442;-58
2022/06/18 07:03:30;;;;;;;;;;;;;;;22.63;100.00;101720.72;2612443;36;19982;-58
2022/06/18 07:05:59;;;;;;;;;;;;;;;23.09;100.00;101724.94;2614238;36;19950;-62
2022/06/18 07:08:27;;;;;;;;;;;;;;;23.71;100.00;101720.53;2613133;36;20339;-60
2022/06/18 07:10:55;;;;;;;;;;;;;;;23.01;100.00;101723.19;2612602;36;19954;-59
2022/06/18 07:13:23;;;;;;;;;;;;;;;23.60;100.00;101726.59;2612667;36;19954;-60
2022/06/18 07:15:54;;;;;;;;;;;;;;;23.67;100.00;101727.50;2614357;36;20421;-57
2022/06/18 07:18:24;;;;;;;;;;;;;;;23.58;100.00;101728.72;2613648;36;20066;-58
2022/06/18 07:20:52;;;;;;;;;;;;;;;23.86;100.00;101730.59;2613969;36;20347;-58
2022/06/18 07:23:20;;;;;;;;;;;;;;;23.85;100.00;101728.84;2613952;31;19977;-61
2022/06/18 07:25:48;;;;;;;;;;;;;;;23.82;100.00;101734.78;2614569;36;19950;-58
2022/06/18 07:28:16;;;;;;;;;;;;;;;23.28;100.00;101734.41;2614904;36;20317;-58
2022/06/18 07:30:46;;;;;;;;;;;;;;;22.97;100.00;101730.13;2613836;36;19954;-60
2022/06/18 07:33:19;;;;;;;;;;;;;;;23.07;100.00;101735.25;2614209;36;19957;-58
2022/06/18 07:35:47;;;;;;;;;;;;;;;23.03;100.00;101736.72;2614059;36;20457;-57
2022/06/18 07:38:15;;;;;;;;;;;;;;;23.59;100.00;101738.66;2613453;36;19947;-63
2022/06/18 07:40:45;;;;;;;;;;;;;;;23.49;100.00;101736.25;2614966;31;19951;-58
2022/06/18 07:43:17;;;;;;;;;;;;;;;23.68;100.00;101728.34;2613341;36;20007;-59
2022/06/18 07:45:46;;;;;;;;;;;;;;;24.13;100.00;101731.56;2614576;36;19959;-60
2022/06/18 07:48:17;;;;;;;;;;;;;;;23.85;100.00;101734.34;2613717;36;20053;-65
2022/06/18 07:50:46;;;;;;;;;;;;;;;24.26;100.00;101736.28;2614429;31;20466;-62
2022/06/18 07:53:17;;;;;;;;;;;;;;;24.17;100.00;101730.09;2614755;36;20376;-60
2022/06/18 07:55:45;;;;;;;;;;;;;;;23.49;100.00;101732.66;2614307;36;20340;-59
2022/06/18 07:58:13;;;;;;;;;;;;;;;23.52;100.00;101726.78;2613973;36;20455;-59
2022/06/18 08:00:42;;;;;;;;;;;;;;;24.33;100.00;101722.56;2613746;36;20411;-59
2022/06/18 08:03:12;;;;;;;;;;;;;;;24.34;100.00;101716.84;2613946;36;19958;-58
2022/06/18 08:05:43;;;;;;;;;;;;;;;24.71;100.00;101722.88;2614317;36;19977;-58
2022/06/18 08:08:11;;;;;;;;;;;;;;;24.28;100.00;101723.19;2613870;36;19950;-63
2022/06/18 08:10:40;;;;;;;;;;;;;;;24.84;100.00;101733.91;2613235;36;19974;-62
2022/06/18 08:13:08;;;;;;;;;;;;;;;24.86;100.00;101735.63;2612558;36;19947;-62
2022/06/18 08:15:37;;;;;;;;;;;;;;;24.48;100.00;101735.09;2613891;36;19973;-62
2022/06/18 08:18:05;;;;;;;;;;;;;;;24.29;100.00;101727.59;2612577;36;19950;-59
2022/06/18 08:20:33;;;;;;;;;;;;;;;24.94;100.00;101732.63;2611961;36;20428;-58
2022/06/18 08:23:06;;;;;;;;;;;;;;;25.49;100.00;101714.00;2613287;36;19954;-58
2022/06/18 08:25:37;;;;;;;;;;;;;;;25.24;100.00;101715.72;2614078;36;19958;-58
2022/06/18 08:28:08;;;;;;;;;;;;;;;25.27;100.00;101715.28;2613181;31;19977;-58
2022/06/18 08:30:37;;;;;;;;;;;;;;;25.50;100.00;101712.94;2612293;31;20601;-60
2022/06/18 08:33:05;;;;;;;;;;;;;;;25.43;100.00;101714.03;2613537;36;20427;-58
2022/06/18 08:35:36;;;;;;;;;;;;;;;25.69;100.00;101704.81;2614098;31;19946;-59
2022/06/18 08:38:08;;;;;;;;;;;;;;;25.89;100.00;101700.09;2612819;36;20416;-58
2022/06/18 08:40:44;;;;;;;;;;;;;;;26.17;100.00;101711.91;2613465;36;19957;-57
2022/06/18 08:43:20;;;;;;;;;;;;;;;25.83;100.00;101713.91;2613485;31;20410;-58
2022/06/18 08:45:53;;;;;;;;;;;;;;;25.56;100.00;101715.88;2614407;36;19973;-58
2022/06/18 08:48:39;;;;;;;;;;;;;;;25.59;100.00;101712.69;2613125;36;19954;-59
2022/06/18 08:51:14;;;;;;;;;;;;;;;25.64;100.00;101711.00;2614260;36;19981;-59
2022/06/18 08:53:57;;;;;;;;;;;;;;;25.14;100.00;101700.44;2613499;36;19962;-59
2022/06/18 08:56:35;;;;;;;;;;;;;;;24.56;100.00;101703.78;2613008;36;19950;-64
2022/06/18 08:59:08;;;;;;;;;;;;;;;24.95;100.00;101696.63;2613716;31;19951;-59
2022/06/18 09:01:41;;;;;;;;;;;;;;;25.50;100.00;101690.03;2614103;36;19951;-58
2022/06/18 09:04:14;;;;;;;;;;;;;;;25.32;100.00;101690.69;2612806;36;19946;-58
2022/06/18 09:06:51;;;;;;;;;;;;;;;25.29;100.00;101691.09;2612590;36;20538;-58
2022/06/18 09:09:25;;;;;;;;;;;;;;;25.33;100.00;101684.13;2613891;31;19952;-58
2022/06/18 09:12:09;;;;;;;;;;;;;;;24.88;100.00;101701.31;2614208;36;20328;-59
2022/06/18 09:14:42;;;;;;;;;;;;;;;24.83;100.00;101706.59;2614277;36;20333;-59
2022/06/18 09:17:16;;;;;;;;;;;;;;;25.08;100.00;101706.81;2611935;36;19946;-58
2022/06/18 09:19:46;;;;;;;;;;;;;;;25.62;100.00;101704.03;2612903;36;19947;-60
2022/06/18 09:22:18;;;;;;;;;;;;;;;25.90;100.00;101703.72;2613447;36;19955;-64
2022/06/18 09:24:47;;;;;;;;;;;;;;;26.27;100.00;101705.91;2612650;36;20445;-59
2022/06/18 09:27:22;;;;;;;;;;;;;;;26.51;100.00;101707.03;2613257;31;19955;-61
2022/06/18 09:29:54;;;;;;;;;;;;;;;26.75;100.00;101713.69;2612996;36;19998;-62
2022/06/18 09:32:24;;;;;;;;;;;;;;;26.74;100.00;101706.50;2612518;36;19953;-59
2022/06/18 09:34:55;;;;;;;;;;;;;;;26.68;100.00;101721.22;2613087;36;19946;-61
2022/06/18 09:37:27;;;;;;;;;;;;;;;26.18;100.00;101717.19;2612357;36;19947;-58
2022/06/18 09:39:57;;;;;;;;;;;;;;;26.27;100.00;101711.44;2611387;36;20429;-62
2022/06/18 09:42:33;;;;;;;;;;;;;;;26.12;100.00;101709.81;2613881;31;20336;-62
2022/06/18 09:45:04;;;;;;;;;;;;;;;25.65;100.00;101700.84;2613747;36;20041;-61
2022/06/18 09:47:36;;;;;;;;;;;;;;;26.26;100.00;101705.06;2613843;36;20372;-58
2022/06/18 09:50:04;;;;;;;;;;;;;;;26.39;100.00;101715.19;2613929;36;20552;-58
2022/06/18 09:52:34;;;;;;;;;;;;;;;26.53;100.00;101711.28;2614396;36;20406;-58
2022/06/18 09:55:06;;;;;;;;;;;;;;;26.88;100.00;101704.47;2613213;36;19946;-63
2022/06/18 09:57:37;;;;;;;;;;;;;;;27.21;100.00;101704.19;2613211;36;19973;-63
2022/06/18 10:00:10;;;;;;;;;;;;;;;26.92;100.00;101711.25;2613020;36;19947;-63
2022/06/18 10:02:41;;;;;;;;;;;;;;;27.04;100.00;101706.66;2612821;36;19946;-58
2022/06/18 10:07:57;;;;;;;;;;;;;;;26.20;100.00;101704.00;2612371;36;19951;-59
2022/06/18 10:10:26;;;;;;;;;;;;;;;26.67;100.00;101708.44;2612575;36;20725;-58
2022/06/18 10:12:58;;;;;;;;;;;;;;;27.04;100.00;101700.31;2612974;36;19946;-58
2022/06/18 10:15:28;;;;;;;;;;;;;;;27.35;100.00;101704.94;2611656;36;19950;-60
2022/06/18 10:18:04;;;;;;;;;;;;;;;26.99;100.00;101700.16;2613547;36;19955;-61
2022/06/18 10:20:39;;;;;;;;;;;;;;;27.42;100.00;101700.19;2613495;36;19950;-63
2022/06/18 10:23:14;;;;;;;;;;;;;;;27.56;100.00;101688.97;2613567;36;19947;-60
2022/06/18 10:25:45;;;;;;;;;;;;;;;26.48;100.00;101686.25;2613080;36;19955;-59
2022/06/18 10:28:20;;;;;;;;;;;;;;;26.74;100.00;101681.66;2612997;36;19965;-60
2022/06/18 10:30:52;;;;;;;;;;;;;;;26.87;100.00;101673.25;2611032;36;20530;-58
2022/06/18 10:33:28;;;;;;;;;;;;;;;26.41;100.00;101677.16;2612976;31;19986;-61
2022/06/18 10:36:03;;;;;;;;;;;;;;;27.24;100.00;101675.25;2614121;31;19950;-59
2022/06/18 10:38:39;;;;;;;;;;;;;;;25.89;100.00;101675.28;2614809;36;19951;-58
2022/06/18 10:41:11;;;;;;;;;;;;;;;26.73;100.00;101666.13;2613148;36;20753;-58
2022/06/18 10:43:52;;;;;;;;;;;;;;;26.79;100.00;101667.16;2612777;36;19974;-61
2022/06/18 10:46:21;;;;;;;;;;;;;;;27.52;100.00;101660.97;2612473;36;19974;-62
2022/06/18 10:48:51;;;;;;;;;;;;;;;27.39;100.00;101655.56;2612906;36;19951;-61
2022/06/18 10:51:21;;;;;;;;;;;;;;;27.81;100.00;101661.22;2614757;31;19969;-62
2022/06/18 10:53:50;;;;;;;;;;;;;;;27.64;100.00;101658.25;2614780;31;20345;-61
2022/06/18 10:56:20;;;;;;;;;;;;;;;27.89;100.00;101660.94;2614234;36;19989;-59
2022/06/18 10:58:52;;;;;;;;;;;;;;;28.36;100.00;101648.38;2614288;36;19951;-59
2022/06/18 11:01:24;;;;;;;;;;;;;;;28.42;100.00;101642.75;2614764;36;20545;-60
2022/06/18 11:03:56;;;;;;;;;;;;;;;28.49;100.00;101660.09;2613795;36;20486;-60
2022/06/18 11:06:25;;;;;;;;;;;;;;;28.16;100.00;101659.75;2614894;36;20061;-64
2022/06/18 11:08:54;;;;;;;;;;;;;;;27.45;100.00;101647.19;2614227;36;19950;-60
2022/06/18 11:11:23;;;;;;;;;;;;;;;27.41;100.00;101650.66;2614690;31;19951;-60
2022/06/18 11:13:54;;;;;;;;;;;;;;;27.68;100.00;101647.56;2614079;36;20454;-62
2022/06/18 11:16:24;;;;;;;;;;;;;;;27.17;100.00;101635.78;2614347;36;19950;-60
2022/06/18 11:18:53;;;;;;;;;;;;;;;28.01;100.00;101646.34;2614456;36;20348;-63
2022/06/18 11:21:25;;;;;;;;;;;;;;;28.14;100.00;101638.69;2614371;36;19971;-65
2022/06/18 11:23:55;;;;;;;;;;;;;;;29.11;100.00;101638.66;2614872;31;19958;-61
2022/06/18 11:26:24;;;;;;;;;;;;;;;28.70;100.00;101638.50;2614277;31;19951;-60
2022/06/18 11:28:55;;;;;;;;;;;;;;;29.08;100.00;101637.22;2614177;36;19981;-62
2022/06/18 11:31:26;;;;;;;;;;;;;;;28.86;100.00;101645.28;2614128;36;19958;-60
2022/06/18 11:33:56;;;;;;;;;;;;;;;28.64;100.00;101645.84;2613461;36;19978;-61
2022/06/18 11:36:37;;;;;;;;;;;;;;;29.09;100.00;101635.25;2614229;36;19950;-59
2022/06/18 11:39:06;;;;;;;;;;;;;;;28.84;100.00;101637.22;2614145;36;19961;-62
2022/06/18 11:41:38;;;;;;;;;;;;;;;28.88;100.00;101645.88;2614099;36;19962;-62
2022/06/18 11:44:13;;;;;;;;;;;;;;;27.74;100.00;101643.91;2614057;36;19977;-61
2022/06/18 11:46:44;;;;;;;;;;;;;;;27.04;100.00;101648.66;2614456;36;19959;-60
2022/06/18 11:49:16;;;;;;;;;;;;;;;27.17;100.00;101647.69;2613999;31;19954;-62
2022/06/18 11:51:47;;;;;;;;;;;;;;;27.19;100.00;101645.53;2614470;36;19957;-61
2022/06/18 11:54:18;;;;;;;;;;;;;;;27.93;100.00;101651.09;2613803;36;19983;-61
2022/06/18 11:56:54;;;;;;;;;;;;;;;28.49;100.00;101646.25;2614403;36;20428;-60
2022/06/18 11:59:27;;;;;;;;;;;;;;;28.29;100.00;101646.56;2614324;36;19981;-62
2022/06/18 12:01:58;;;;;;;;;;;;;;;28.36;100.00;101651.16;2615114;36;20359;-61
2022/06/18 12:04:29;;;;;;;;;;;;;;;28.21;100.00;101652.44;2613746;36;19950;-59
2022/06/18 12:07:00;;;;;;;;;;;;;;;28.07;100.00;101646.25;2614077;36;19951;-61
2022/06/18 12:09:32;;;;;;;;;;;;;;;28.16;100.00;101644.00;2615155;36;19950;-59
2022/06/18 12:12:20;;;;;;;;;;;;;;;28.41;100.00;101640.22;2614330;36;19961;-60
2022/06/18 12:14:54;;;;;;;;;;;;;;;28.46;100.00;101630.13;2614129;31;20490;-60
2022/06/18 12:17:26;;;;;;;;;;;;;;;28.32;100.00;101642.47;2614271;36;19973;-64
2022/06/18 12:19:58;;;;;;;;;;;;;;;28.95;100.00;101638.28;2614434;36;19955;-62
2022/06/18 12:22:32;;;;;;;;;;;;;;;28.46;100.00;101637.56;2613769;31;19977;-57
2022/06/18 12:25:16;;;;;;;;;;;;;;;28.01;100.00;101625.03;2614327;36;19956;-59
2022/06/18 12:27:48;;;;;;;;;;;;;;;27.95;100.00;101623.19;2614424;36;19991;-60
2022/06/18 12:30:22;;;;;;;;;;;;;;;28.70;100.00;101632.13;2612704;36;19950;-60
2022/06/18 12:32:53;;;;;;;;;;;;;;;28.44;100.00;101639.75;2612554;36;19951;-59
2022/06/18 12:35:26;;;;;;;;;;;;;;;28.79;100.00;101617.66;2612739;31;19947;-59
2022/06/18 12:38:01;;;;;;;;;;;;;;;28.76;100.00;101622.88;2612968;36;20406;-59
2022/06/18 12:40:34;;;;;;;;;;;;;;;28.43;100.00;101621.44;2613020;31;20432;-63
2022/06/18 12:43:05;;;;;;;;;;;;;;;27.98;100.00;101631.06;2612686;36;19946;-60
2022/06/18 12:45:39;;;;;;;;;;;;;;;28.08;100.00;101619.44;2612749;36;20409;-62
2022/06/18 12:48:14;;;;;;;;;;;;;;;29.10;100.00;101626.72;2612006;36;19977;-64
2022/06/18 12:50:50;;;;;;;;;;;;;;;29.52;100.00;101622.97;2614055;36;19976;-59
2022/06/18 12:53:27;;;;;;;;;;;;;;;28.36;100.00;101620.69;2614258;36;19950;-63
2022/06/18 12:55:58;;;;;;;;;;;;;;;28.10;100.00;101622.78;2614566;36;19951;-59
2022/06/18 12:58:32;;;;;;;;;;;;;;;28.30;100.00;101616.97;2613119;36;19986;-60